createdAt,value
2022-10-23T00:01:15.449Z,15.90
2022-10-23T00:03:45.666Z,15.90
2022-10-23T00:06:14.487Z,15.90
2022-10-23T00:08:43.370Z,15.90
2022-10-23T00:11:13.204Z,15.90
2022-10-23T00:13:41.867Z,15.90
2022-10-23T00:16:10.636Z,15.90
2022-10-23T00:18:39.544Z,15.90
2022-10-23T00:21:11.474Z,15.90
2022-10-23T00:23:40.520Z,15.90
2022-10-23T00:26:11.259Z,15.90
2022-10-23T00:28:39.942Z,15.90
2022-10-23T00:31:08.393Z,15.90
2022-10-23T00:33:37.290Z,15.90
2022-10-23T00:36:08.946Z,16.00
2022-10-23T00:38:37.811Z,16.00
2022-10-23T00:41:06.842Z,16.00
2022-10-23T00:43:36.424Z,16.00
2022-10-23T00:46:04.730Z,16.00
2022-10-23T00:48:32.878Z,16.00
2022-10-23T00:51:01.122Z,16.00
2022-10-23T00:53:30.761Z,16.00
2022-10-23T00:55:59.973Z,16.00
2022-10-23T00:58:28.158Z,16.00
2022-10-23T01:00:57.686Z,16.00
2022-10-23T01:03:28.789Z,16.20
2022-10-23T01:06:04.147Z,16.00
2022-10-23T01:11:11.670Z,16.00
2022-10-23T01:16:18.878Z,16.10
2022-10-23T03:10:07.909Z,16.10
2022-10-23T03:12:36.344Z,15.60
2022-10-23T03:15:06.192Z,15.60
2022-10-23T03:17:34.617Z,15.60
2022-10-23T03:20:02.842Z,15.60
2022-10-23T03:22:31.060Z,15.60
2022-10-23T03:24:59.447Z,15.60
2022-10-23T03:30:00.779Z,15.50
2022-10-23T03:32:30.534Z,15.50
2022-10-23T03:34:58.762Z,15.50
2022-10-23T03:42:23.730Z,15.50
2022-10-23T03:44:52.289Z,15.50
2022-10-23T03:47:21.081Z,15.40
2022-10-23T03:49:50.649Z,15.40
2022-10-23T03:52:18.901Z,15.40
2022-10-23T03:54:47.121Z,15.40
2022-10-23T03:57:15.302Z,15.40
2022-10-23T03:59:43.467Z,15.40
2022-10-23T04:02:12.086Z,15.40
2022-10-23T04:04:40.325Z,15.40
2022-10-23T04:07:09.894Z,15.30
2022-10-23T04:09:38.112Z,15.40
2022-10-23T04:12:07.031Z,15.40
2022-10-23T04:14:35.330Z,15.40
2022-10-23T04:17:03.742Z,15.40
2022-10-23T04:19:31.899Z,15.50
2022-10-23T04:22:00.304Z,15.50
2022-10-23T04:24:29.921Z,15.40
2022-10-23T04:26:58.173Z,15.40
2022-10-23T04:29:26.532Z,15.40
2022-10-23T04:31:54.746Z,15.40
2022-10-23T04:34:23.086Z,15.40
2022-10-23T04:36:51.251Z,15.40
2022-10-23T04:39:19.608Z,15.40
2022-10-23T04:41:49.637Z,15.40
2022-10-23T04:44:17.902Z,15.30
2022-10-23T04:46:46.066Z,15.30
2022-10-23T04:49:14.243Z,15.30
2022-10-23T04:51:42.387Z,15.30
2022-10-23T04:54:10.683Z,15.30
2022-10-23T04:56:38.844Z,15.20
2022-10-23T04:59:08.465Z,15.30
2022-10-23T05:01:37.105Z,15.30
2022-10-23T05:04:05.812Z,15.30
2022-10-23T05:06:33.984Z,15.20
2022-10-23T05:09:02.162Z,15.30
2022-10-23T05:11:30.503Z,15.30
2022-10-23T05:13:58.668Z,15.30
2022-10-23T05:16:40.208Z,15.30
2022-10-23T05:19:14.814Z,15.30
2022-10-23T05:21:43.465Z,15.30
2022-10-23T05:24:12.532Z,15.30
2022-10-23T05:26:40.737Z,15.30
2022-10-23T05:29:08.950Z,15.40
2022-10-23T05:31:38.498Z,15.40
2022-10-23T05:34:09.907Z,15.30
2022-10-23T05:36:40.978Z,15.30
2022-10-23T05:39:09.195Z,15.30
2022-10-23T05:41:37.359Z,15.30
2022-10-23T05:44:05.719Z,15.20
2022-10-23T05:46:33.926Z,15.20
2022-10-23T05:49:03.463Z,15.20
2022-10-23T05:51:31.629Z,15.20
2022-10-23T05:53:59.830Z,15.20
2022-10-23T05:56:27.998Z,15.20
2022-10-23T05:58:56.261Z,15.20
2022-10-23T06:01:24.703Z,15.20
2022-10-23T06:03:53.156Z,15.20
2022-10-23T06:06:22.885Z,15.20
2022-10-23T06:08:51.071Z,15.20
2022-10-23T06:11:19.222Z,15.20
2022-10-23T06:13:48.649Z,15.20
2022-10-23T06:16:18.854Z,15.20
2022-10-23T06:18:47.972Z,15.20
2022-10-23T06:21:17.097Z,15.20
2022-10-23T06:23:47.882Z,15.20
2022-10-23T06:26:17.738Z,15.30
2022-10-23T06:28:46.444Z,15.20
2022-10-23T06:31:18.129Z,15.30
2022-10-23T06:33:46.478Z,15.30
2022-10-23T06:36:14.681Z,15.40
2022-10-23T06:38:42.802Z,15.40
2022-10-23T06:41:15.630Z,15.40
2022-10-23T06:43:44.254Z,15.50
2022-10-23T06:46:12.418Z,15.50
2022-10-23T06:48:42.254Z,15.50
2022-10-23T06:51:14.558Z,15.60
2022-10-23T06:53:43.160Z,15.70
2022-10-23T06:56:13.249Z,15.70
2022-10-23T06:58:42.041Z,15.70
2022-10-23T07:01:13.053Z,15.80
2022-10-23T07:03:41.432Z,15.90
2022-10-23T07:06:11.830Z,15.80
2022-10-23T07:08:40.543Z,15.90
2022-10-23T07:11:10.657Z,15.90
2022-10-23T07:13:42.674Z,16.10
2022-10-23T07:16:13.507Z,16.00
2022-10-23T07:18:41.733Z,16.00
2022-10-23T07:21:10.082Z,16.10
2022-10-23T07:23:38.817Z,16.20
2022-10-23T07:26:08.697Z,16.20
2022-10-23T07:28:36.968Z,16.20
2022-10-23T07:31:06.707Z,16.30
2022-10-23T07:33:35.234Z,16.30
2022-10-23T07:36:06.344Z,16.40
2022-10-23T07:38:34.616Z,16.40
2022-10-23T07:41:03.126Z,16.50
2022-10-23T07:46:00.780Z,16.60
2022-10-23T07:48:30.589Z,16.60
2022-10-23T07:51:01.011Z,16.70
2022-10-23T07:53:29.839Z,16.80
2022-10-23T07:55:59.788Z,16.80
2022-10-23T07:58:29.056Z,16.80
2022-10-23T08:00:59.239Z,16.90
2022-10-23T08:03:27.470Z,16.90
2022-10-23T08:05:57.801Z,17.00
2022-10-23T08:08:27.002Z,17.10
2022-10-23T08:10:56.442Z,17.10
2022-10-23T08:13:25.317Z,17.20
2022-10-23T08:15:54.245Z,17.30
2022-10-23T08:18:22.487Z,17.30
2022-10-23T08:20:52.515Z,17.40
2022-10-23T08:23:22.183Z,17.50
2022-10-23T08:25:50.440Z,17.50
2022-10-23T08:28:18.609Z,17.50
2022-10-23T08:30:46.763Z,17.50
2022-10-23T08:33:14.925Z,17.60
2022-10-23T08:35:43.202Z,17.60
2022-10-23T08:38:12.145Z,17.60
2022-10-23T08:40:46.078Z,17.70
2022-10-23T08:43:21.730Z,17.80
2022-10-23T08:45:53.943Z,17.90
2022-10-23T08:48:27.263Z,18.00
2022-10-23T08:51:00.445Z,17.90
2022-10-23T08:53:35.612Z,18.00
2022-10-23T08:56:08.415Z,18.00
2022-10-23T08:58:40.212Z,18.10
2022-10-23T09:01:39.876Z,18.20
2022-10-23T09:04:10.990Z,18.20
2022-10-23T09:06:48.507Z,18.30
2022-10-23T09:09:34.660Z,18.30
2022-10-23T09:12:08.678Z,18.40
2022-10-23T09:14:51.219Z,18.40
2022-10-23T09:17:26.168Z,18.40
2022-10-23T09:20:01.351Z,18.40
2022-10-23T09:22:30.038Z,18.50
2022-10-23T09:24:58.353Z,18.50
2022-10-23T09:27:27.874Z,18.60
2022-10-23T09:29:57.109Z,18.60
2022-10-23T09:32:34.946Z,18.70
2022-10-23T09:35:03.417Z,18.70
2022-10-23T09:37:34.352Z,18.80
2022-10-23T09:40:17.743Z,18.80
2022-10-23T09:42:56.124Z,18.90
2022-10-23T09:45:30.879Z,18.90
2022-10-23T09:48:16.152Z,18.90
2022-10-23T09:50:49.920Z,19.00
2022-10-23T09:53:23.146Z,19.00
2022-10-23T09:55:55.776Z,19.10
2022-10-23T09:58:33.350Z,19.10
2022-10-23T10:01:01.851Z,19.10
2022-10-23T10:03:30.099Z,19.20
2022-10-23T10:06:01.417Z,19.20
2022-10-23T10:08:44.324Z,19.30
2022-10-23T10:11:17.619Z,19.30
2022-10-23T10:14:06.175Z,19.40
2022-10-23T10:16:48.360Z,19.40
2022-10-23T10:19:28.249Z,19.50
2022-10-23T10:22:08.928Z,19.50
2022-10-23T10:24:42.938Z,19.50
2022-10-23T10:27:21.979Z,19.50
2022-10-23T10:30:03.705Z,19.60
2022-10-23T10:32:41.143Z,19.60
2022-10-23T10:35:38.151Z,19.60
2022-10-23T10:38:31.852Z,19.70
2022-10-23T10:41:23.401Z,19.70
2022-10-23T10:44:08.556Z,19.80
2022-10-23T10:46:45.839Z,19.80
2022-10-23T10:49:19.921Z,19.80
2022-10-23T10:51:57.639Z,19.80
2022-10-23T10:54:38.787Z,19.90
2022-10-23T10:57:15.154Z,19.90
2022-10-23T10:59:47.246Z,19.90
2022-10-23T11:02:26.937Z,20.00
2022-10-23T11:05:02.081Z,20.00
2022-10-23T11:07:37.079Z,20.00
2022-10-23T11:10:15.359Z,20.00
2022-10-23T11:12:46.024Z,20.10
2022-10-23T11:15:16.521Z,20.10
2022-10-23T11:17:52.026Z,20.10
2022-10-23T11:20:53.619Z,20.10
2022-10-23T11:23:56.564Z,20.10
2022-10-23T11:26:47.949Z,20.20
2022-10-23T11:29:43.653Z,20.20
2022-10-23T11:32:29.226Z,20.20
2022-10-23T11:35:13.967Z,20.20
2022-10-23T11:37:42.458Z,20.30
2022-10-23T11:40:24.272Z,20.30
2022-10-23T11:42:53.014Z,20.30
2022-10-23T11:45:35.825Z,20.30
2022-10-23T11:48:06.722Z,20.30
2022-10-23T11:50:54.047Z,20.40
2022-10-23T11:53:28.904Z,20.40
2022-10-23T11:56:00.692Z,20.40
2022-10-23T11:58:41.534Z,20.40
2022-10-23T12:01:24.915Z,20.40
2022-10-23T12:03:56.685Z,20.40
2022-10-23T12:06:28.314Z,20.40
2022-10-23T12:09:00.535Z,20.40
2022-10-23T12:11:41.589Z,20.40
2022-10-23T12:14:31.509Z,20.40
2022-10-23T12:17:00.656Z,20.40
2022-10-23T12:19:31.023Z,20.40
2022-10-23T12:22:02.982Z,20.50
2022-10-23T12:24:57.743Z,20.40
2022-10-23T12:27:35.228Z,20.40
2022-10-23T12:30:20.212Z,20.40
2022-10-23T12:33:12.636Z,20.40
2022-10-23T12:36:18.076Z,20.40
2022-10-23T12:38:49.812Z,20.40
2022-10-23T12:41:22.225Z,20.40
2022-10-23T12:43:54.789Z,20.50
2022-10-23T12:46:37.635Z,20.50
2022-10-23T12:49:15.275Z,20.50
2022-10-23T12:51:43.447Z,20.50
2022-10-23T12:54:18.475Z,20.50
2022-10-23T12:56:47.152Z,20.50
2022-10-23T12:59:18.613Z,20.50
2022-10-23T13:01:50.406Z,20.50
2022-10-23T13:04:28.942Z,20.50
2022-10-23T13:06:58.889Z,20.40
2022-10-23T13:09:31.324Z,20.40
2022-10-23T13:12:00.192Z,20.40
2022-10-23T13:14:39.294Z,20.50
2022-10-23T13:17:12.447Z,20.50
2022-10-23T13:19:40.605Z,20.50
2022-10-23T13:22:19.180Z,20.50
2022-10-23T13:24:49.254Z,20.50
2022-10-23T13:27:27.909Z,20.50
2022-10-23T13:29:56.121Z,20.50
2022-10-23T13:32:26.949Z,20.60
2022-10-23T13:35:03.963Z,20.60
2022-10-23T13:40:25.095Z,20.60
2022-10-23T13:42:55.110Z,20.60
2022-10-23T13:45:25.235Z,20.50
2022-10-23T13:47:54.004Z,20.50
2022-10-23T13:50:22.145Z,20.50
2022-10-23T13:52:50.307Z,20.50
2022-10-23T13:55:24.974Z,20.50
2022-10-23T13:57:53.213Z,20.50
2022-10-23T14:00:21.563Z,20.50
2022-10-23T14:02:49.834Z,20.50
2022-10-23T14:05:18.044Z,20.50
2022-10-23T14:07:46.675Z,20.50
2022-10-23T14:10:15.078Z,20.50
2022-10-23T14:12:45.739Z,20.50
2022-10-23T14:15:14.347Z,20.50
2022-10-23T14:17:42.522Z,20.50
2022-10-23T14:20:12.063Z,20.50
2022-10-23T14:22:40.285Z,20.50
2022-10-23T14:27:50.345Z,20.60
2022-10-23T14:30:18.659Z,20.60
2022-10-23T14:32:47.235Z,20.60
2022-10-23T14:35:15.730Z,20.60
2022-10-23T14:37:44.095Z,20.60
2022-10-23T14:40:12.886Z,20.40
2022-10-23T14:42:41.117Z,20.60
2022-10-23T14:45:11.829Z,20.60
2022-10-23T14:47:39.966Z,20.60
2022-10-23T14:50:09.299Z,20.60
2022-10-23T14:52:37.555Z,20.60
2022-10-23T14:55:06.371Z,20.60
2022-10-23T14:57:34.917Z,20.60
2022-10-23T15:00:03.180Z,20.60
2022-10-23T15:02:32.862Z,20.60
2022-10-23T15:05:01.062Z,20.60
2022-10-23T15:07:29.353Z,20.60
2022-10-23T15:09:57.519Z,20.60
2022-10-23T15:12:25.692Z,20.50
2022-10-23T15:14:53.979Z,20.60
2022-10-23T15:17:22.144Z,20.50
2022-10-23T15:19:51.667Z,20.50
2022-10-23T15:22:20.142Z,20.50
2022-10-23T15:24:49.011Z,20.40
2022-10-23T15:27:17.492Z,20.40
2022-10-23T15:29:45.759Z,20.40
2022-10-23T15:32:14.056Z,20.40
2022-10-23T15:34:42.892Z,20.40
2022-10-23T15:37:12.589Z,20.40
2022-10-23T15:39:40.822Z,20.40
2022-10-23T15:42:09.934Z,20.30
2022-10-23T15:44:38.241Z,20.30
2022-10-23T15:47:06.425Z,20.30
2022-10-23T15:49:34.679Z,20.30
2022-10-23T15:52:04.292Z,20.30
2022-10-23T15:54:33.937Z,20.20
2022-10-23T15:57:02.523Z,20.20
2022-10-23T15:59:32.447Z,20.30
2022-10-23T16:02:01.082Z,20.30
2022-10-23T16:04:29.673Z,20.20
2022-10-23T16:06:58.012Z,20.20
2022-10-23T16:09:26.184Z,20.20
2022-10-23T16:11:55.701Z,20.10
2022-10-23T16:14:23.883Z,20.20
2022-10-23T16:16:52.051Z,20.30
2022-10-23T16:19:20.290Z,20.30
2022-10-23T16:21:48.596Z,20.20
2022-10-23T16:24:16.851Z,20.30
2022-10-23T16:26:50.269Z,20.30
2022-10-23T16:29:20.740Z,20.30
2022-10-23T16:31:48.962Z,20.30
2022-10-23T16:34:17.551Z,20.30
2022-10-23T16:36:46.133Z,20.30
2022-10-23T16:39:16.042Z,20.30
2022-10-23T16:41:44.499Z,20.30
2022-10-23T16:44:12.718Z,20.20
2022-10-23T16:46:42.308Z,20.20
2022-10-23T16:49:10.555Z,20.20
2022-10-23T16:51:38.734Z,20.20
2022-10-23T16:54:07.222Z,20.20
2022-10-23T16:56:35.386Z,20.20
2022-10-23T16:59:03.703Z,20.10
2022-10-23T17:01:33.749Z,20.10
2022-10-23T17:04:03.398Z,20.10
2022-10-23T17:06:33.433Z,20.10
2022-10-23T17:09:02.777Z,20.10
2022-10-23T17:11:33.046Z,20.10
2022-10-23T17:14:03.107Z,20.10
2022-10-23T17:16:34.403Z,20.10
2022-10-23T17:19:16.044Z,20.10
2022-10-23T17:21:55.401Z,20.10
2022-10-23T17:24:23.934Z,20.10
2022-10-23T17:26:52.949Z,20.00
2022-10-23T17:29:21.821Z,20.10
2022-10-23T17:31:51.625Z,20.00
2022-10-23T17:34:23.000Z,19.90
2022-10-23T17:36:53.824Z,20.00
2022-10-23T17:39:24.264Z,20.10
2022-10-23T17:41:53.431Z,20.10
2022-10-23T17:44:21.618Z,20.10
2022-10-23T17:46:53.561Z,20.10
2022-10-23T17:49:23.875Z,20.10
2022-10-23T17:51:53.623Z,20.20
2022-10-23T17:54:22.175Z,20.10
2022-10-23T17:56:50.451Z,20.10
2022-10-23T17:59:19.614Z,20.00
2022-10-23T18:01:48.776Z,20.10
2022-10-23T18:04:19.004Z,20.10
2022-10-23T18:06:50.991Z,20.10
2022-10-23T18:09:19.743Z,20.00
2022-10-23T18:11:48.705Z,20.10
2022-10-23T18:14:17.849Z,20.10
2022-10-23T18:16:46.635Z,20.10
2022-10-23T18:19:15.112Z,20.10
2022-10-23T18:21:43.356Z,20.10
2022-10-23T18:24:13.107Z,20.10
2022-10-23T18:26:43.114Z,20.10
2022-10-23T18:29:13.028Z,20.10
2022-10-23T18:31:42.296Z,20.10
2022-10-23T18:34:18.326Z,20.10
2022-10-23T18:36:47.183Z,20.10
2022-10-23T18:39:22.175Z,20.10
2022-10-23T18:41:51.847Z,20.10
2022-10-23T18:44:22.774Z,20.10
2022-10-23T18:46:51.369Z,20.00
2022-10-23T18:49:20.468Z,20.10
2022-10-23T18:51:49.849Z,20.00
2022-10-23T18:54:20.865Z,20.00
2022-10-23T18:56:49.439Z,20.00
2022-10-23T18:59:19.882Z,20.00
2022-10-23T19:01:48.345Z,20.00
2022-10-23T19:04:18.013Z,20.00
2022-10-23T19:06:46.954Z,20.00
2022-10-23T19:09:15.731Z,20.00
2022-10-23T19:11:46.056Z,20.00
2022-10-23T19:14:14.530Z,19.90
2022-10-23T19:16:47.030Z,19.90
2022-10-23T19:19:20.418Z,19.90
2022-10-23T19:21:49.988Z,19.90
2022-10-23T19:24:22.197Z,19.90
2022-10-23T19:26:52.388Z,19.90
2022-10-23T19:29:22.808Z,19.90
2022-10-23T19:31:51.778Z,20.00
2022-10-23T19:34:22.635Z,20.00
2022-10-23T19:36:51.666Z,20.00
2022-10-23T19:39:20.267Z,20.00
2022-10-23T19:41:48.560Z,20.00
2022-10-23T19:44:18.134Z,20.00
2022-10-23T19:46:46.332Z,20.00
2022-10-23T19:49:14.579Z,19.90
2022-10-23T19:51:49.766Z,19.90
2022-10-23T19:54:19.813Z,20.00
2022-10-23T19:56:48.333Z,19.90
2022-10-23T19:59:18.027Z,19.90
2022-10-23T20:01:47.989Z,19.90
2022-10-23T20:04:18.379Z,19.90
2022-10-23T20:06:47.195Z,19.90
2022-10-23T20:09:15.542Z,19.90
2022-10-23T20:11:45.260Z,19.90
2022-10-23T20:14:14.359Z,19.90
2022-10-23T20:16:45.883Z,19.90
2022-10-23T20:21:50.206Z,19.90
2022-10-23T20:24:20.787Z,19.90
2022-10-23T20:26:51.439Z,19.90
2022-10-23T20:29:19.894Z,19.90
2022-10-23T20:31:49.961Z,19.90
2022-10-23T20:34:19.046Z,19.90
2022-10-23T20:36:49.427Z,19.90
2022-10-23T20:39:19.435Z,19.80
2022-10-23T20:41:48.434Z,19.80
2022-10-23T20:44:18.680Z,19.80
2022-10-23T20:46:46.982Z,19.80
2022-10-23T20:49:17.519Z,19.80
2022-10-23T20:51:46.177Z,19.80
2022-10-23T20:54:14.384Z,19.70
2022-10-23T20:56:43.236Z,19.70
2022-10-23T20:59:13.847Z,19.70
2022-10-23T21:01:43.341Z,19.60
2022-10-23T21:04:14.018Z,19.70
2022-10-23T21:07:08.228Z,19.60
2022-10-23T21:09:32.555Z,19.70
2022-10-23T21:12:00.767Z,19.70
2022-10-23T21:14:28.933Z,19.70
2022-10-23T21:16:57.077Z,19.60
2022-10-23T21:19:25.325Z,19.60
2022-10-23T21:21:56.353Z,19.60
2022-10-23T21:24:25.128Z,19.60
2022-10-23T21:26:53.343Z,19.60
2022-10-23T21:29:21.890Z,19.70
2022-10-23T21:31:54.554Z,19.60
2022-10-23T21:34:22.854Z,19.70
2022-10-23T21:39:40.634Z,19.70
2022-10-23T21:42:08.878Z,19.70
2022-10-23T21:44:37.286Z,19.70
2022-10-23T21:47:05.726Z,19.70
2022-10-23T21:49:33.917Z,19.70
2022-10-23T21:52:02.107Z,19.70
2022-10-23T21:54:30.274Z,19.70
2022-10-23T21:56:59.880Z,19.70
2022-10-23T21:59:30.290Z,19.70
2022-10-23T22:01:59.937Z,19.70
2022-10-23T22:04:28.288Z,19.70
2022-10-23T22:06:56.543Z,19.60
2022-10-23T22:09:24.760Z,19.60
2022-10-23T22:11:54.279Z,19.60
2022-10-23T22:14:24.852Z,19.60
2022-10-23T22:16:53.643Z,19.70
2022-10-23T22:19:23.498Z,19.60
2022-10-23T22:21:52.521Z,19.60
2022-10-23T22:24:21.469Z,19.70
2022-10-23T22:26:52.179Z,19.60
2022-10-23T22:29:21.976Z,19.60
2022-10-23T22:31:51.903Z,19.60
2022-10-23T22:34:47.920Z,19.60
2022-10-23T22:37:11.477Z,19.60
2022-10-23T22:39:39.845Z,19.60
2022-10-23T22:42:08.286Z,19.70
2022-10-23T22:44:36.482Z,19.60
2022-10-23T22:47:06.374Z,19.60
2022-10-23T22:49:34.611Z,19.70
2022-10-23T22:52:02.791Z,19.70
2022-10-23T22:54:31.519Z,19.70
2022-10-23T22:56:59.951Z,19.70
2022-10-23T22:59:28.180Z,19.70
2022-10-23T23:01:56.436Z,19.70
2022-10-23T23:04:42.547Z,19.70
2022-10-23T23:07:12.843Z,19.60
2022-10-23T23:09:46.265Z,19.70
2022-10-23T23:12:15.390Z,19.70
2022-10-23T23:14:44.383Z,19.70
2022-10-23T23:17:12.971Z,19.70
2022-10-23T23:19:42.563Z,19.70
2022-10-23T23:22:10.939Z,19.80
2022-10-23T23:24:39.106Z,19.70
2022-10-23T23:27:07.399Z,19.70
2022-10-23T23:29:35.663Z,19.70
2022-10-23T23:32:06.113Z,19.70
2022-10-23T23:34:34.350Z,19.80
2022-10-23T23:37:03.951Z,19.80
2022-10-23T23:39:32.166Z,19.80
2022-10-23T23:42:00.373Z,19.80
2022-10-23T23:44:28.650Z,19.80
2022-10-23T23:46:56.957Z,20.10
2022-10-23T23:49:25.455Z,19.80
2022-10-23T23:51:53.609Z,19.80
2022-10-23T23:54:23.189Z,19.80
2022-10-23T23:56:51.389Z,19.80
2022-10-23T23:59:19.570Z,19.80
